KAQO

Llano Municipal Airport

Llano, Texas, USA
METAR KAQO 221435Z AUTO 31010KT 10SM OVC015 19/16 A3005 RMK AO2
Observed Flight Rules
Sep-22 @ 14:35 UTC (25 minutes ago) Marginal Visual Flight Rules
Wind Visibility Clouds
310° at 10 knots 10 miles
Temperatures Readings
Current 19°C / 66°F
Dewpoint 16°C / 61°F
Humidity 83%
Altimeter 30.05" Hg
Pressure 1018 hPa
Elevation 336
METAR KAQO 221435Z AUTO 31010KT 10SM OVC015 19/16 A3005 RMK AO2
Observed Flight Rules
Sep-22 @ 14:35 UTC
(25 minutes ago)
MVFR
Wind Visibility
310° at 10 knots 10 miles
Clouds
Temperature Dewpoint
19°C / 66°F 16°C / 61°F
Humidity Altimeter Pressure
83% 30.05" Hg 1018 hPa